Time;durP1;ratioP1;P1;durP2;ratioP2;P2;SDS_P1;SDS_P2;PMS_P1;PMS_P2;Temp;Humidity;BMP_temperature;BMP_pressure;BME280_temperature;BME280_humidity;BME280_pressure;Samples;Min_cycle;Max_cycle;Signal;HPM_P1;HPM_P2
2023/04/29 00:01:14;;;;;;;17.30;8.38;;;;;;;12.73;100.00;99582.50;4914883;28;20050;-93
2023/04/29 00:03:41;;;;;;;13.80;8.20;;;;;;;12.72;100.00;99580.81;4917645;28;20054;-94
2023/04/29 00:06:08;;;;;;;19.85;9.38;;;;;;;12.74;100.00;99574.34;4919454;28;20078;-94
2023/04/29 00:08:35;;;;;;;21.45;10.63;;;;;;;12.77;100.00;99574.06;4937210;28;20071;-94
2023/04/29 00:11:01;;;;;;;20.50;10.52;;;;;;;12.88;100.00;99575.63;4918664;28;20495;-93
2023/04/29 00:13:28;;;;;;;23.15;11.95;;;;;;;12.93;100.00;99572.50;4913801;28;20078;-94
2023/04/29 00:15:55;;;;;;;22.08;10.40;;;;;;;12.95;100.00;99579.34;4938552;28;20047;-94
2023/04/29 00:18:22;;;;;;;38.90;16.02;;;;;;;12.91;100.00;99577.97;4929955;28;20058;-94
2023/04/29 00:20:49;;;;;;;37.75;13.80;;;;;;;12.82;100.00;99577.09;4933164;28;20078;-94
2023/04/29 00:23:16;;;;;;;35.25;13.75;;;;;;;12.83;100.00;99577.91;4935155;28;20097;-94
2023/04/29 00:25:42;;;;;;;29.60;12.82;;;;;;;12.81;100.00;99580.72;4935145;28;20066;-94
2023/04/29 00:28:09;;;;;;;25.85;11.48;;;;;;;12.77;100.00;99586.50;4948153;28;20054;-95
2023/04/29 00:30:36;;;;;;;28.63;10.32;;;;;;;12.77;100.00;99579.38;4933257;28;20491;-94
2023/04/29 00:33:06;;;;;;;29.55;11.85;;;;;;;12.76;100.00;99583.03;4933684;28;20051;-94
2023/04/29 00:35:34;;;;;;;30.17;12.93;;;;;;;12.77;100.00;99578.53;4939088;28;20042;-94
2023/04/29 00:38:01;;;;;;;27.67;11.52;;;;;;;12.75;100.00;99573.38;4916152;28;20047;-95
2023/04/29 00:40:27;;;;;;;24.75;11.38;;;;;;;12.76;100.00;99574.19;4934530;28;20063;-94
2023/04/29 00:42:54;;;;;;;39.03;13.73;;;;;;;12.80;100.00;99581.72;4918505;28;20059;-92
2023/04/29 00:45:22;;;;;;;24.20;10.25;;;;;;;12.79;100.00;99566.72;4918672;28;20498;-94
2023/04/29 00:47:49;;;;;;;24.67;9.75;;;;;;;12.81;100.00;99578.06;4937076;28;20446;-93
2023/04/29 00:50:17;;;;;;;17.85;8.38;;;;;;;12.85;100.00;99578.59;4922336;28;20509;-94
2023/04/29 00:52:44;;;;;;;25.90;10.48;;;;;;;12.84;100.00;99581.41;4934405;28;20067;-93
2023/04/29 00:55:11;;;;;;;19.40;9.50;;;;;;;12.83;100.00;99580.59;4931854;28;20050;-93
2023/04/29 00:57:38;;;;;;;23.55;10.05;;;;;;;12.75;100.00;99575.19;4923010;28;20045;-93
2023/04/29 01:00:06;;;;;;;22.50;9.90;;;;;;;12.79;100.00;99582.69;4959344;28;20058;-93
2023/04/29 01:02:33;;;;;;;23.75;10.55;;;;;;;12.79;100.00;99584.53;4930801;28;20035;-93
2023/04/29 01:05:00;;;;;;;27.65;10.77;;;;;;;12.81;100.00;99591.38;4931591;28;20054;-93
2023/04/29 01:07:46;;;;;;;29.08;11.68;;;;;;;12.77;100.00;99594.50;4918004;28;20494;-93
2023/04/29 01:10:59;;;;;;;25.50;9.07;;;;;;;12.66;100.00;99597.44;4947558;28;20109;-94
2023/04/29 01:13:39;;;;;;;26.52;9.73;;;;;;;12.68;100.00;99588.28;4929549;28;20503;-93
2023/04/29 01:16:10;;;;;;;25.25;11.13;;;;;;;12.72;100.00;99591.47;4951247;28;20042;-92
2023/04/29 01:18:44;;;;;;;28.30;10.52;;;;;;;12.70;100.00;99586.31;4948289;28;20134;-92
2023/04/29 01:21:14;;;;;;;29.15;11.18;;;;;;;12.77;100.00;99590.03;4911378;28;20039;-92
2023/04/29 01:23:41;;;;;;;24.30;10.10;;;;;;;12.74;100.00;99600.16;4948940;28;20126;-94
2023/04/29 01:26:08;;;;;;;23.48;10.30;;;;;;;12.75;100.00;99592.03;4917322;28;20426;-95
2023/04/29 01:29:41;;;;;;;21.90;9.40;;;;;;;12.65;100.00;99593.94;4933838;28;20118;-94
2023/04/29 01:32:14;;;;;;;26.63;10.38;;;;;;;12.70;100.00;99593.47;4937635;28;21758;-94
2023/04/29 01:34:43;;;;;;;25.40;10.65;;;;;;;12.74;100.00;99589.50;4918681;28;20047;-94
2023/04/29 01:37:20;;;;;;;24.17;10.65;;;;;;;12.66;100.00;99594.78;4942704;28;20043;-94
2023/04/29 01:40:11;;;;;;;28.33;9.05;;;;;;;12.63;100.00;99601.25;4917213;28;20047;-94
2023/04/29 01:43:00;;;;;;;30.83;11.48;;;;;;;12.64;100.00;99602.91;4933615;28;20046;-94
2023/04/29 01:45:29;;;;;;;24.75;8.90;;;;;;;12.66;100.00;99590.28;4917201;28;20051;-93
2023/04/29 01:47:56;;;;;;;19.95;8.02;;;;;;;12.68;100.00;99593.63;4935899;28;20049;-93
2023/04/29 01:50:24;;;;;;;18.02;7.82;;;;;;;12.69;100.00;99597.94;4930595;28;20055;-94
2023/04/29 01:52:52;;;;;;;14.45;6.93;;;;;;;12.71;100.00;99593.31;4932063;28;20942;-94
2023/04/29 01:55:20;;;;;;;14.05;6.55;;;;;;;12.67;100.00;99591.09;4932709;28;20070;-94
2023/04/29 01:58:10;;;;;;;17.80;7.95;;;;;;;12.64;100.00;99594.91;4934860;28;20562;-92
2023/04/29 02:00:55;;;;;;;18.10;7.35;;;;;;;12.65;100.00;99590.44;4958930;28;20043;-94
2023/04/29 02:03:23;;;;;;;14.93;6.35;;;;;;;12.70;100.00;99590.81;4936338;28;20122;-93
2023/04/29 02:05:53;;;;;;;18.17;6.25;;;;;;;12.69;100.00;99589.97;4916984;28;20047;-93
2023/04/29 02:08:20;;;;;;;17.73;6.68;;;;;;;12.71;100.00;99587.97;4955645;28;20469;-93
2023/04/29 02:10:58;;;;;;;14.20;6.63;;;;;;;12.64;100.00;99586.91;4925942;28;20049;-93
2023/04/29 02:13:42;;;;;;;15.13;6.72;;;;;;;12.65;100.00;99585.13;4948363;28;20057;-93
2023/04/29 02:16:13;;;;;;;20.33;7.53;;;;;;;12.71;100.00;99600.47;4930363;28;20055;-93
2023/04/29 02:18:48;;;;;;;20.35;8.55;;;;;;;12.69;100.00;99592.63;4936404;28;20097;-93
2023/04/29 02:21:15;;;;;;;24.52;9.65;;;;;;;12.70;100.00;99596.97;4948954;28;20089;-94
2023/04/29 02:23:42;;;;;;;17.50;7.85;;;;;;;12.70;100.00;99604.97;4959321;28;20459;-94
2023/04/29 02:26:09;;;;;;;21.23;9.27;;;;;;;12.73;100.00;99604.66;4932909;28;20061;-93
2023/04/29 02:28:36;;;;;;;26.25;10.10;;;;;;;12.70;100.00;99610.28;4934717;28;20050;-93
2023/04/29 02:31:03;;;;;;;25.55;10.38;;;;;;;12.67;100.00;99599.09;4930482;28;20054;-94
2023/04/29 02:33:31;;;;;;;23.20;8.93;;;;;;;12.70;100.00;99604.97;4913312;28;20050;-94
2023/04/29 02:35:58;;;;;;;18.60;8.20;;;;;;;12.71;100.00;99611.97;4934122;28;20051;-93
2023/04/29 02:38:25;;;;;;;19.45;8.93;;;;;;;12.71;100.00;99611.97;4917251;28;20478;-93
2023/04/29 02:40:52;;;;;;;15.50;7.22;;;;;;;12.73;100.00;99607.31;4914873;28;20122;-93
2023/04/29 02:43:20;;;;;;;16.48;8.02;;;;;;;12.75;100.00;99616.00;4918918;28;20086;-93
2023/04/29 02:45:47;;;;;;;20.35;8.55;;;;;;;12.75;100.00;99612.50;4931283;28;20054;-93
2023/04/29 02:48:14;;;;;;;22.67;8.50;;;;;;;12.75;100.00;99610.66;4917155;28;20043;-92
2023/04/29 02:50:41;;;;;;;18.65;8.45;;;;;;;12.77;100.00;99610.50;4954644;28;20498;-92
2023/04/29 02:53:08;;;;;;;26.58;9.20;;;;;;;12.78;100.00;99615.69;4938197;28;20105;-93
2023/04/29 02:55:35;;;;;;;19.10;8.50;;;;;;;12.76;100.00;99622.16;4930100;28;20395;-93
2023/04/29 02:58:07;;;;;;;23.33;9.45;;;;;;;12.73;100.00;99620.63;4927410;28;20061;-92
2023/04/29 03:00:34;;;;;;;21.98;9.55;;;;;;;12.77;100.00;99621.16;4930446;28;20050;-92
2023/04/29 03:03:01;;;;;;;21.88;8.35;;;;;;;12.81;100.00;99617.19;4939912;28;20788;-92
2023/04/29 03:05:28;;;;;;;21.42;8.25;;;;;;;12.77;100.00;99611.34;4912919;28;20498;-93
2023/04/29 03:07:55;;;;;;;21.05;8.60;;;;;;;12.79;100.00;99614.69;4928008;28;20816;-93
2023/04/29 03:10:21;;;;;;;24.40;9.48;;;;;;;12.79;100.00;99608.53;4914862;28;20055;-94
2023/04/29 03:12:48;;;;;;;20.55;8.63;;;;;;;12.79;100.00;99614.69;4916870;28;20564;-93
2023/04/29 03:15:15;;;;;;;22.13;9.57;;;;;;;12.80;100.00;99619.03;4912191;28;20061;-93
2023/04/29 03:17:45;;;;;;;22.08;8.35;;;;;;;12.77;100.00;99608.69;4910744;28;20107;-92
2023/04/29 03:20:12;;;;;;;24.50;8.70;;;;;;;12.78;100.00;99614.84;4923061;28;20479;-93
2023/04/29 03:22:39;;;;;;;22.98;8.05;;;;;;;12.76;100.00;99611.50;4928451;28;20545;-91
2023/04/29 03:25:09;;;;;;;22.00;9.25;;;;;;;12.79;100.00;99620.00;4943755;28;20046;-93
2023/04/29 03:27:37;;;;;;;21.20;8.98;;;;;;;12.82;100.00;99613.53;4933039;28;20073;-93
2023/04/29 03:30:05;;;;;;;29.85;11.05;;;;;;;12.85;100.00;99612.38;4931716;28;20606;-93
2023/04/29 03:32:34;;;;;;;25.88;9.57;;;;;;;12.84;100.00;99624.88;4943608;28;20058;-93
2023/04/29 03:35:01;;;;;;;25.85;9.50;;;;;;;12.82;100.00;99619.72;4930906;28;20047;-93
2023/04/29 03:37:43;;;;;;;24.15;9.65;;;;;;;12.84;100.00;99616.06;4916527;28;20066;-93
2023/04/29 03:40:19;;;;;;;37.88;13.90;;;;;;;12.93;100.00;99623.13;4936800;28;20138;-93
2023/04/29 03:42:47;;;;;;;37.95;13.40;;;;;;;12.91;100.00;99620.59;4943071;28;20383;-92
2023/04/29 03:45:14;;;;;;;33.83;12.02;;;;;;;12.93;100.00;99623.94;4945880;28;20054;-93
2023/04/29 03:47:41;;;;;;;28.73;11.25;;;;;;;13.02;100.00;99625.66;4933227;28;20035;-93
2023/04/29 03:50:09;;;;;;;25.88;9.55;;;;;;;13.09;100.00;99628.53;4930517;28;20062;-92
2023/04/29 03:52:36;;;;;;;32.70;12.88;;;;;;;13.14;100.00;99634.25;4920246;28;20050;-92
2023/04/29 03:55:09;;;;;;;31.20;12.32;;;;;;;13.15;100.00;99629.75;4933442;28;20138;-93
2023/04/29 03:57:36;;;;;;;26.65;11.90;;;;;;;13.18;100.00;99635.63;4932009;28;20042;-93
2023/04/29 04:00:05;;;;;;;27.33;10.23;;;;;;;13.19;100.00;99631.13;4950897;28;20122;-93
2023/04/29 04:02:39;;;;;;;30.30;10.32;;;;;;;13.20;100.00;99636.31;4952639;28;20406;-94
2023/04/29 04:05:09;;;;;;;32.72;11.43;;;;;;;13.22;100.00;99634.28;4930352;28;22208;-94
2023/04/29 04:07:39;;;;;;;26.83;10.63;;;;;;;13.23;100.00;99637.81;4915813;28;20050;-93
2023/04/29 04:10:41;;;;;;;24.73;10.20;;;;;;;13.21;100.00;99637.13;4939552;28;20426;-93
2023/04/29 04:13:22;;;;;;;29.77;11.60;;;;;;;13.16;100.00;99634.94;4930857;28;20046;-94
2023/04/29 04:15:50;;;;;;;27.52;10.13;;;;;;;13.15;100.00;99643.06;4928697;28;20047;-93
2023/04/29 04:18:17;;;;;;;27.75;10.23;;;;;;;13.14;100.00;99644.91;4932459;28;20054;-93
2023/04/29 04:20:44;;;;;;;21.42;9.85;;;;;;;13.10;100.00;99648.03;4929424;28;20499;-92
2023/04/29 04:23:11;;;;;;;21.75;9.27;;;;;;;13.11;100.00;99647.06;4932537;28;20515;-92
2023/04/29 04:25:38;;;;;;;24.40;9.25;;;;;;;13.13;100.00;99656.56;4949642;28;20101;-92
2023/04/29 04:28:27;;;;;;;20.27;9.15;;;;;;;13.08;100.00;99652.69;4932481;28;20491;-93
2023/04/29 04:30:59;;;;;;;20.70;8.55;;;;;;;13.11;100.00;99653.22;4946979;28;20049;-92
2023/04/29 04:33:26;;;;;;;18.17;8.45;;;;;;;13.12;100.00;99659.38;4932072;28;20063;-92
2023/04/29 04:35:53;;;;;;;20.40;8.15;;;;;;;13.14;100.00;99660.06;4913335;28;20043;-92
2023/04/29 04:38:22;;;;;;;15.57;8.25;;;;;;;13.12;100.00;99664.72;4945304;28;20061;-93
2023/04/29 04:40:48;;;;;;;22.23;8.20;;;;;;;13.11;100.00;99666.56;4940014;28;20047;-93
2023/04/29 04:43:32;;;;;;;16.83;7.90;;;;;;;13.09;100.00;99660.53;4930129;28;20407;-93
2023/04/29 04:46:00;;;;;;;16.55;6.72;;;;;;;13.10;100.00;99670.22;4932485;28;20051;-93
2023/04/29 04:48:27;;;;;;;11.52;5.97;;;;;;;13.12;100.00;99665.56;4943523;28;20901;-93
2023/04/29 04:50:56;;;;;;;8.85;5.70;;;;;;;13.12;100.00;99668.22;4936885;28;20050;-93
2023/04/29 04:53:23;;;;;;;11.25;5.40;;;;;;;13.18;100.00;99674.78;4918619;28;20046;-93
2023/04/29 04:56:00;;;;;;;9.13;5.20;;;;;;;13.14;100.00;99676.06;4918614;28;20486;-94
2023/04/29 04:58:29;;;;;;;10.30;5.85;;;;;;;13.15;100.00;99681.25;4935786;28;20055;-93
2023/04/29 05:00:56;;;;;;;11.95;5.65;;;;;;;13.16;100.00;99688.25;4934854;28;20046;-94
2023/04/29 05:03:23;;;;;;;13.30;5.30;;;;;;;13.17;100.00;99686.41;4913062;28;20046;-93
2023/04/29 05:05:54;;;;;;;12.43;4.90;;;;;;;13.21;100.00;99679.78;4963506;28;20532;-94
2023/04/29 05:08:22;;;;;;;13.55;5.78;;;;;;;13.23;100.00;99681.31;4907971;28;20051;-93
2023/04/29 05:10:51;;;;;;;7.57;5.05;;;;;;;13.25;100.00;99690.00;4933217;28;25299;-94
2023/04/29 05:13:20;;;;;;;8.25;4.63;;;;;;;13.25;100.00;99697.13;4936116;28;20043;-94
2023/04/29 05:15:47;;;;;;;16.08;7.25;;;;;;;13.27;100.00;99697.03;4919505;28;20106;-94
2023/04/29 05:18:19;;;;;;;11.25;4.30;;;;;;;13.29;100.00;99705.72;4930649;28;20401;-94
2023/04/29 05:20:49;;;;;;;8.90;4.82;;;;;;;13.29;100.00;99700.38;4934908;28;20047;-94
2023/04/29 05:23:16;;;;;;;6.40;4.63;;;;;;;13.31;100.00;99709.88;4915549;28;20506;-94
2023/04/29 05:25:44;;;;;;;9.43;4.80;;;;;;;13.35;100.00;99715.72;4965043;28;20514;-94
2023/04/29 05:28:11;;;;;;;9.80;4.35;;;;;;;13.33;100.00;99715.91;4919932;28;20078;-94
2023/04/29 05:30:40;;;;;;;9.80;4.50;;;;;;;13.34;100.00;99722.91;4918338;28;20042;-92
2023/04/29 05:33:07;;;;;;;7.95;4.35;;;;;;;13.36;100.00;99723.59;4931174;28;20384;-93
2023/04/29 05:35:34;;;;;;;10.30;4.72;;;;;;;13.36;100.00;99725.44;4917597;28;20076;-92
2023/04/29 05:38:01;;;;;;;6.75;4.50;;;;;;;13.37;100.00;99727.09;4947245;28;20046;-94
2023/04/29 05:40:50;;;;;;;10.55;4.68;;;;;;;13.34;100.00;99730.91;4942820;28;20047;-94
2023/04/29 05:43:34;;;;;;;13.93;4.43;;;;;;;13.38;100.00;99740.28;4933334;28;20075;-92
2023/04/29 05:46:02;;;;;;;5.13;4.28;;;;;;;13.39;100.00;99749.94;4915693;28;20755;-94
2023/04/29 05:48:29;;;;;;;13.45;4.55;;;;;;;13.39;100.00;99749.13;4920147;28;20047;-94
2023/04/29 05:50:56;;;;;;;8.57;4.45;;;;;;;13.40;100.00;99748.09;4933470;28;20163;-93
2023/04/29 05:53:24;;;;;;;5.47;4.13;;;;;;;13.41;100.00;99758.63;4917274;28;20070;-92
2023/04/29 05:55:51;;;;;;;8.15;3.88;;;;;;;13.41;100.00;99750.63;4926319;28;20126;-92
2023/04/29 05:58:20;;;;;;;6.82;4.18;;;;;;;13.44;100.00;99752.16;4944404;28;20410;-92
2023/04/29 06:00:48;;;;;;;9.13;4.72;;;;;;;13.45;100.00;99754.63;4947586;28;20137;-93
2023/04/29 06:03:20;;;;;;;;;;;;;;;13.31;99.96;99765.88;4918114;28;20406;-93
2023/04/29 06:05:52;;;;;;;9.30;4.78;;;;;;;13.41;99.50;99758.63;4934270;28;19976;-93
2023/04/29 06:08:38;;;;;;;7.72;3.75;;;;;;;13.44;99.37;99768.97;4936624;28;20043;-93
2023/04/29 06:11:19;;;;;;;23.02;6.60;;;;;;;13.45;99.13;99775.16;4936434;28;20054;-92
2023/04/29 06:13:46;;;;;;;9.20;3.55;;;;;;;13.51;98.78;99779.03;4932985;28;20066;-93
2023/04/29 06:16:14;;;;;;;8.35;3.88;;;;;;;13.52;98.67;99783.38;4941299;28;20043;-93
2023/04/29 06:18:41;;;;;;;7.93;4.53;;;;;;;13.52;98.33;99775.38;4930024;28;20046;-93
2023/04/29 06:21:07;;;;;;;7.85;3.78;;;;;;;13.53;98.67;99785.88;4927218;28;20047;-84
2023/04/29 06:23:35;;;;;;;5.13;3.47;;;;;;;13.57;98.71;99789.09;4937549;28;20047;-85
2023/04/29 06:26:07;;;;;;;10.27;3.85;;;;;;;13.57;98.99;99783.75;4945469;28;20050;-85
2023/04/29 06:28:34;;;;;;;8.20;4.80;;;;;;;13.60;98.92;99789.59;4958288;28;20051;-85
2023/04/29 06:31:01;;;;;;;8.57;4.25;;;;;;;13.63;98.56;99791.94;4944146;28;20047;-85
2023/04/29 06:33:30;;;;;;;6.50;3.88;;;;;;;13.64;98.33;99790.13;4938943;28;20043;-84
2023/04/29 06:35:56;;;;;;;6.03;4.38;;;;;;;13.66;98.47;99796.13;4957519;28;20486;-86
2023/04/29 06:38:43;;;;;;;7.93;4.20;;;;;;;13.68;99.14;99804.81;4938633;28;20054;-85
2023/04/29 06:41:33;;;;;;;7.97;4.88;;;;;;;13.67;98.89;99806.66;4934726;28;20932;-85
2023/04/29 06:44:38;;;;;;;12.30;4.05;;;;;;;13.66;97.61;99809.47;4932535;28;20059;-85
2023/04/29 06:47:38;;;;;;;6.97;4.47;;;;;;;13.67;97.38;99811.16;4936148;28;20051;-85
2023/04/29 06:50:10;;;;;;;8.23;4.45;;;;;;;13.72;98.32;99806.19;4946912;28;20565;-84
2023/04/29 06:52:36;;;;;;;10.90;5.15;;;;;;;13.78;97.51;99808.22;4958019;28;20668;-85
2023/04/29 06:55:04;;;;;;;10.00;5.25;;;;;;;13.86;97.54;99810.94;4947388;28;20062;-85
2023/04/29 06:57:31;;;;;;;14.65;6.45;;;;;;;13.93;98.74;99813.81;4956350;28;20054;-84
2023/04/29 06:59:57;;;;;;;8.80;5.95;;;;;;;14.00;98.31;99812.22;4958282;28;20187;-85
2023/04/29 07:02:24;;;;;;;10.43;5.68;;;;;;;14.03;97.54;99811.06;4957916;28;20053;-84
2023/04/29 07:04:51;;;;;;;11.02;5.65;;;;;;;14.06;97.32;99819.56;4931097;28;21009;-85
2023/04/29 07:07:18;;;;;;;19.95;6.43;;;;;;;14.13;96.70;99813.59;4970627;28;20058;-84
2023/04/29 07:09:45;;;;;;;14.90;6.90;;;;;;;14.05;95.33;99817.91;4945963;28;20475;-85
2023/04/29 07:12:12;;;;;;;12.45;7.28;;;;;;;14.02;95.82;99820.91;4947671;28;20043;-85
2023/04/29 07:14:40;;;;;;;14.13;6.82;;;;;;;14.06;95.09;99826.75;4956622;28;20130;-85
2023/04/29 07:17:07;;;;;;;14.57;7.85;;;;;;;14.02;95.22;99828.91;4961979;28;20082;-85
2023/04/29 07:19:34;;;;;;;17.90;8.15;;;;;;;14.03;95.18;99833.25;4940731;28;25209;-85
2023/04/29 07:22:01;;;;;;;21.33;7.50;;;;;;;14.05;95.53;99843.78;4943563;28;20043;-84
2023/04/29 07:24:28;;;;;;;14.60;7.35;;;;;;;14.07;95.15;99839.94;4940021;28;20407;-85
2023/04/29 07:26:55;;;;;;;18.55;7.43;;;;;;;14.06;94.20;99840.09;4958573;28;20047;-86
2023/04/29 07:29:21;;;;;;;15.57;7.05;;;;;;;14.07;93.74;99842.63;4941887;28;20063;-85
2023/04/29 07:31:48;;;;;;;21.08;7.10;;;;;;;14.11;94.21;99840.47;4923873;28;20047;-85
2023/04/29 07:34:15;;;;;;;19.70;9.35;;;;;;;14.16;94.37;99840.00;4948875;28;20065;-85
2023/04/29 07:36:42;;;;;;;21.63;8.60;;;;;;;14.17;93.48;99849.66;4933467;28;20047;-84
2023/04/29 07:39:11;;;;;;;16.50;8.25;;;;;;;14.21;93.68;99843.03;4945447;28;20048;-85
2023/04/29 07:41:38;;;;;;;21.90;8.77;;;;;;;14.25;92.91;99852.41;4941796;28;20105;-86
2023/04/29 07:44:05;;;;;;;19.40;8.32;;;;;;;14.22;92.09;99855.38;4916093;28;20471;-85
2023/04/29 07:46:31;;;;;;;23.55;9.85;;;;;;;14.16;91.18;99866.69;4923140;28;20062;-84
2023/04/29 07:48:58;;;;;;;18.83;9.43;;;;;;;14.20;91.62;99863.56;4941258;28;20047;-84
2023/04/29 07:51:27;;;;;;;19.65;8.48;;;;;;;14.21;92.03;99869.72;4929595;28;20043;-84
2023/04/29 07:53:54;;;;;;;18.38;9.30;;;;;;;14.22;91.39;99874.94;4941038;28;20574;-85
2023/04/29 07:56:22;;;;;;;23.48;9.60;;;;;;;14.22;91.55;99871.38;4953275;28;20055;-85
2023/04/29 07:58:49;;;;;;;22.00;9.88;;;;;;;14.24;91.71;99874.75;4917320;28;20047;-84
2023/04/29 08:01:16;;;;;;;21.83;9.02;;;;;;;14.26;91.49;99878.94;4940565;28;20070;-84
2023/04/29 08:03:44;;;;;;;26.08;9.70;;;;;;;14.30;90.84;99877.63;4941515;28;20054;-84
2023/04/29 08:06:12;;;;;;;19.73;9.18;;;;;;;14.32;89.54;99880.13;4940081;28;20047;-84
2023/04/29 08:08:41;;;;;;;22.63;10.70;;;;;;;14.31;nan;99878.47;4925852;28;20050;-84
2023/04/29 08:11:14;;;;;;;21.40;9.20;;;;;;;14.27;88.00;99877.97;4956918;28;20088;-85
2023/04/29 08:13:41;;;;;;;23.23;10.15;;;;;;;14.31;89.59;99876.63;4947355;28;20050;-85
2023/04/29 08:16:08;;;;;;;24.95;10.15;;;;;;;14.37;88.68;99880.50;4945657;28;20486;-85
2023/04/29 08:18:35;;;;;;;21.55;9.95;;;;;;;14.39;88.85;99875.81;4926767;28;20058;-85
2023/04/29 08:21:02;;;;;;;17.73;9.30;;;;;;;14.42;88.12;99880.00;4957728;28;20134;-84
2023/04/29 08:23:29;;;;;;;17.13;8.82;;;;;;;14.36;88.88;99878.00;4940626;28;20047;-84
2023/04/29 08:25:56;;;;;;;25.60;10.25;;;;;;;14.41;87.86;99884.53;4958828;28;20047;-84
2023/04/29 08:28:23;;;;;;;21.35;10.15;;;;;;;14.47;87.11;99881.22;4930633;28;20055;-84
2023/04/29 08:30:50;;;;;;;22.70;9.02;;;;;;;14.43;86.84;99889.72;4962969;28;20059;-85
2023/04/29 08:33:17;;;;;;;20.92;9.30;;;;;;;14.43;86.66;99893.22;4943825;28;20098;-85
2023/04/29 08:35:44;;;;;;;26.58;9.88;;;;;;;14.48;86.93;99893.59;4972283;28;20047;-84
2023/04/29 08:38:10;;;;;;;27.75;9.98;;;;;;;14.51;87.01;99887.09;4960875;28;20046;-86
2023/04/29 08:40:42;;;;;;;23.27;9.98;;;;;;;14.53;87.78;99893.16;4947509;28;20050;-85
2023/04/29 08:43:09;;;;;;;20.83;9.48;;;;;;;14.60;87.45;99902.16;4947765;28;20813;-84
2023/04/29 08:45:36;;;;;;;19.05;8.95;;;;;;;14.63;87.51;99899.19;4956634;28;20046;-85
2023/04/29 08:48:04;;;;;;;20.63;9.25;;;;;;;14.66;87.39;99898.03;4944064;28;20053;-84
2023/04/29 08:50:33;;;;;;;22.10;10.50;;;;;;;14.67;86.28;99899.72;4947275;28;20059;-84
2023/04/29 08:53:00;;;;;;;23.05;10.55;;;;;;;14.69;85.69;99903.91;4955723;28;20054;-84
2023/04/29 08:55:27;;;;;;;22.55;11.48;;;;;;;14.69;84.56;99905.75;4957792;28;20126;-84
2023/04/29 08:57:55;;;;;;;23.48;11.07;;;;;;;14.73;85.33;99893.72;4946935;28;20043;-84
2023/04/29 09:00:23;;;;;;;23.73;10.27;;;;;;;14.71;85.04;99904.56;4946252;28;20062;-84
2023/04/29 09:02:50;;;;;;;23.40;10.93;;;;;;;14.70;84.25;99902.88;4955325;28;20051;-84
2023/04/29 09:05:18;;;;;;;22.02;10.40;;;;;;;14.65;83.70;99904.38;4942394;28;20065;-85
2023/04/29 09:07:45;;;;;;;28.55;11.15;;;;;;;14.60;82.47;99904.84;4946838;28;20467;-85
2023/04/29 09:10:12;;;;;;;20.27;10.18;;;;;;;14.64;83.46;99908.06;4947535;28;20490;-84
2023/04/29 09:12:38;;;;;;;24.67;10.63;;;;;;;14.62;83.14;99918.88;4953306;28;20474;-85
2023/04/29 09:15:06;;;;;;;30.85;12.05;;;;;;;14.52;82.21;99915.47;4943227;28;20144;-84
2023/04/29 09:17:39;;;;;;;28.45;10.90;;;;;;;14.53;82.58;99915.34;4951858;28;20380;-84
2023/04/29 09:20:21;;;;;;;30.33;11.60;;;;;;;14.49;81.36;99921.13;4955949;28;20050;-85
2023/04/29 09:22:58;;;;;;;18.73;8.52;;;;;;;14.56;83.30;99914.19;4953163;28;20455;-84
2023/04/29 09:25:26;;;;;;;29.10;10.93;;;;;;;14.64;83.83;99924.09;4926875;28;20048;-84
2023/04/29 09:27:54;;;;;;;21.63;9.60;;;;;;;14.68;83.96;99920.06;4945958;28;20452;-84
2023/04/29 09:30:22;;;;;;;20.92;10.00;;;;;;;14.73;83.44;99928.44;4929004;28;20054;-85
2023/04/29 09:33:06;;;;;;;18.92;9.15;;;;;;;14.63;82.60;99925.06;4959855;28;20173;-84
2023/04/29 09:35:33;;;;;;;24.77;9.60;;;;;;;14.66;82.42;99932.78;4940735;28;20538;-84
2023/04/29 09:38:14;;;;;;;29.70;11.75;;;;;;;14.56;80.07;99932.91;4955458;28;20376;-84
2023/04/29 09:40:41;;;;;;;29.95;12.55;;;;;;;14.62;81.94;99934.94;4958159;28;20078;-86
2023/04/29 09:43:26;;;;;;;24.80;9.68;;;;;;;14.64;82.56;99942.78;4966542;28;20118;-83
2023/04/29 09:45:52;;;;;;;26.25;10.98;;;;;;;14.61;82.35;99937.78;4937307;28;20479;-84
2023/04/29 09:48:19;;;;;;;24.13;9.73;;;;;;;14.58;81.74;99946.94;4953799;28;20400;-84
2023/04/29 09:51:00;;;;;;;20.00;9.15;;;;;;;14.54;80.58;99950.91;4943560;28;20047;-83
2023/04/29 09:53:29;;;;;;;27.40;10.75;;;;;;;14.43;78.00;99952.00;4955522;28;20115;-84
2023/04/29 09:56:00;;;;;;;26.20;10.25;;;;;;;14.42;78.34;99947.63;4953346;28;20047;-84
2023/04/29 09:58:37;;;;;;;26.63;10.07;;;;;;;14.48;78.41;99946.19;4971687;28;20051;-84
2023/04/29 10:01:03;;;;;;;24.73;9.13;;;;;;;14.58;80.77;99946.09;4937468;28;20082;-83
2023/04/29 10:03:35;;;;;;;26.15;10.82;;;;;;;14.66;80.39;99946.16;4955738;28;20058;-83
2023/04/29 10:06:05;;;;;;;33.83;11.18;;;;;;;14.57;78.58;99955.94;4949619;28;20051;-85
2023/04/29 10:08:33;;;;;;;30.88;10.80;;;;;;;14.51;76.54;99956.56;4958478;28;20042;-83
2023/04/29 10:11:01;;;;;;;25.65;10.55;;;;;;;14.60;77.64;99963.63;4942815;28;20126;-85
2023/04/29 10:13:28;;;;;;;24.92;9.73;;;;;;;14.61;78.31;99959.16;4957007;28;20359;-84
2023/04/29 10:16:11;;;;;;;25.40;9.65;;;;;;;14.63;78.45;99947.31;4940971;28;20098;-84
2023/04/29 10:18:40;;;;;;;30.25;10.30;;;;;;;14.70;78.28;99951.00;4954713;28;20101;-84
2023/04/29 10:21:10;;;;;;;24.73;10.05;;;;;;;14.74;78.78;99946.19;4939465;28;20058;-84
2023/04/29 10:23:38;;;;;;;20.50;9.20;;;;;;;14.83;78.51;99953.22;4941313;28;20108;-84
2023/04/29 10:26:05;;;;;;;19.67;9.00;;;;;;;14.87;77.72;99946.56;4939236;28;20047;-83
2023/04/29 10:28:32;;;;;;;29.85;9.75;;;;;;;14.92;77.77;99948.78;4925894;28;20039;-83
2023/04/29 10:31:02;;;;;;;24.10;8.55;;;;;;;14.88;78.09;99945.59;4947966;28;20106;-83
2023/04/29 10:33:34;;;;;;;26.77;10.95;;;;;;;14.89;77.21;99943.75;4929936;28;20103;-84
2023/04/29 10:36:02;;;;;;;24.38;9.75;;;;;;;14.94;77.48;99950.28;4939025;28;20042;-84
2023/04/29 10:38:36;;;;;;;33.20;10.20;;;;;;;14.94;77.49;99947.59;4958275;28;20055;-84
2023/04/29 10:41:08;;;;;;;22.73;9.98;;;;;;;14.89;76.75;99949.94;4947421;28;20050;-84
2023/04/29 10:43:35;;;;;;;20.80;7.50;;;;;;;14.95;77.17;99946.59;4942101;28;20142;-83
2023/04/29 10:46:22;;;;;;;20.60;7.00;;;;;;;14.85;75.93;99958.44;4927031;28;20447;-84
2023/04/29 10:48:54;;;;;;;19.90;8.35;;;;;;;14.95;77.21;99956.47;4953123;28;20055;-84
2023/04/29 10:51:31;;;;;;;19.65;8.32;;;;;;;14.86;76.01;99950.25;4941505;28;20070;-85
2023/04/29 10:54:12;;;;;;;18.98;7.32;;;;;;;14.92;76.18;99951.44;4928090;28;20047;-84
2023/04/29 10:56:41;;;;;;;19.25;7.60;;;;;;;14.94;76.29;99957.47;4937401;28;20745;-84
2023/04/29 10:59:12;;;;;;;27.50;7.15;;;;;;;14.95;76.09;99957.28;4944250;28;20047;-84
2023/04/29 11:01:47;;;;;;;14.30;7.00;;;;;;;14.96;76.19;99955.47;4946308;28;20669;-84
2023/04/29 11:04:15;;;;;;;18.02;7.15;;;;;;;14.95;75.41;99951.13;4943923;28;20106;-84
2023/04/29 11:06:45;;;;;;;18.90;6.90;;;;;;;14.96;75.48;99952.81;4953874;28;20080;-85
2023/04/29 11:09:14;;;;;;;19.42;6.68;;;;;;;14.93;74.83;99950.44;4938571;28;20046;-85
2023/04/29 11:11:42;;;;;;;19.73;7.88;;;;;;;14.93;75.51;99953.97;4925341;28;20133;-84
2023/04/29 11:14:11;;;;;;;16.23;7.38;;;;;;;14.86;74.04;99946.75;4944137;28;20487;-84
2023/04/29 11:16:58;;;;;;;17.13;7.10;;;;;;;14.74;73.37;99939.00;4924943;28;20393;-83
2023/04/29 11:19:30;;;;;;;15.98;6.82;;;;;;;14.78;74.93;99944.84;4956068;28;20057;-84
2023/04/29 11:22:17;;;;;;;17.23;7.88;;;;;;;14.62;72.41;99945.63;4932706;28;20052;-84
2023/04/29 11:25:13;;;;;;;21.67;7.10;;;;;;;14.66;73.20;99946.97;4940154;28;20046;-85
2023/04/29 11:27:41;;;;;;;15.88;8.27;;;;;;;14.77;74.04;99943.19;4927249;28;20043;-83
2023/04/29 11:30:09;;;;;;;16.52;7.18;;;;;;;14.77;73.72;99948.53;4940839;28;20051;-83
2023/04/29 11:32:41;;;;;;;20.13;7.93;;;;;;;14.74;74.50;99946.19;4921641;28;20047;-83
2023/04/29 11:35:13;;;;;;;19.23;7.32;;;;;;;14.75;73.23;99950.53;4930775;28;20104;-83